Time;durP1;ratioP1;P1;durP2;ratioP2;P2;SDS_P1;SDS_P2;PMS_P1;PMS_P2;Temp;Humidity;BMP_temperature;BMP_pressure;BME280_temperature;BME280_humidity;BME280_pressure;Samples;Min_cycle;Max_cycle;Signal;HPM_P1;HPM_P2
2024/02/12 00:00:11;;;;;;;14.30;13.50;;;8.50;99.90;;;;;;4725830;30;20834;-51
2024/02/12 00:02:39;;;;;;;14.47;13.57;;;8.50;99.90;;;;;;4730851;30;20443;-50
2024/02/12 00:05:06;;;;;;;14.57;13.70;;;8.40;99.90;;;;;;4725475;30;20423;-52
2024/02/12 00:07:32;;;;;;;14.10;13.30;;;8.40;99.90;;;;;;4732698;30;20431;-53
2024/02/12 00:10:05;;;;;;;14.33;13.53;;;8.40;99.90;;;;;;4734627;30;20438;-53
2024/02/12 00:12:32;;;;;;;14.20;13.40;;;8.50;99.90;;;;;;4733550;30;20470;-48
2024/02/12 00:14:59;;;;;;;14.20;13.40;;;8.50;99.90;;;;;;4739052;30;20434;-50
2024/02/12 00:17:28;;;;;;;14.57;13.57;;;8.50;99.90;;;;;;4736356;30;20472;-50
2024/02/12 00:19:55;;;;;;;14.33;13.60;;;8.50;99.90;;;;;;4740737;30;20465;-54
2024/02/12 00:22:23;;;;;;;13.70;13.00;;;8.50;99.90;;;;;;4732689;30;20438;-44
2024/02/12 00:24:49;;;;;;;14.10;13.30;;;8.40;99.90;;;;;;4738818;30;20473;-52
2024/02/12 00:27:16;;;;;;;15.07;14.10;;;8.40;99.90;;;;;;4733374;30;20558;-49
2024/02/12 00:29:42;;;;;;;14.70;13.70;;;8.50;99.90;;;;;;4737082;30;20539;-52
2024/02/12 00:32:09;;;;;;;14.80;13.90;;;8.50;99.90;;;;;;4726801;30;20483;-49
2024/02/12 00:34:35;;;;;;;14.13;13.37;;;8.60;99.90;;;;;;4737330;30;20431;-52
2024/02/12 00:37:00;;;;;;;13.80;13.10;;;8.60;99.90;;;;;;4728180;30;20416;-54
2024/02/12 00:39:27;;;;;;;14.03;13.23;;;8.60;99.90;;;;;;4737555;30;20556;-51
2024/02/12 00:41:53;;;;;;;14.10;13.30;;;8.60;99.90;;;;;;4742523;30;20190;-52
2024/02/12 00:44:20;;;;;;;14.10;13.30;;;8.60;99.90;;;;;;4723783;30;20451;-52
2024/02/12 00:46:54;;;;;;;14.67;13.83;;;8.60;99.90;;;;;;4724222;30;20206;-51
2024/02/12 00:49:20;;;;;;;14.27;13.37;;;8.60;99.90;;;;;;4732409;30;21429;-48
2024/02/12 00:51:45;;;;;;;14.40;13.40;;;8.60;99.90;;;;;;4731017;30;20490;-49
2024/02/12 00:54:14;;;;;;;13.90;13.07;;;8.70;99.90;;;;;;4729072;30;20754;-50
2024/02/12 00:56:44;;;;;;;13.50;12.80;;;8.70;99.90;;;;;;4731182;30;20286;-50
2024/02/12 00:59:11;;;;;;;13.60;12.90;;;8.70;99.90;;;;;;4724034;30;21203;-54
2024/02/12 01:01:38;;;;;;;13.00;12.30;;;8.70;99.90;;;;;;4727734;30;20434;-42
2024/02/12 01:04:07;;;;;;;13.43;12.63;;;8.80;99.90;;;;;;4740489;30;20445;-42
2024/02/12 01:06:36;;;;;;;13.50;12.77;;;8.80;99.90;;;;;;4739583;30;20430;-45
2024/02/12 01:09:05;;;;;;;13.30;12.50;;;8.80;99.90;;;;;;4740397;30;20949;-42
2024/02/12 01:11:34;;;;;;;13.60;12.80;;;8.80;99.90;;;;;;4737682;30;20532;-48
2024/02/12 01:14:08;;;;;;;12.97;12.20;;;8.80;99.90;;;;;;4740456;30;20500;-47
2024/02/12 01:16:35;;;;;;;13.00;12.40;;;8.80;99.90;;;;;;4724770;30;20503;-46
2024/02/12 01:19:00;;;;;;;13.07;12.43;;;8.80;99.90;;;;;;4732832;30;20600;-44
2024/02/12 01:21:26;;;;;;;13.10;12.40;;;8.80;99.90;;;;;;4729898;30;20463;-47
2024/02/12 01:23:52;;;;;;;13.37;12.70;;;8.80;99.90;;;;;;4738115;30;20203;-45
2024/02/12 01:26:19;;;;;;;13.27;12.60;;;8.90;99.90;;;;;;4738220;30;20533;-44
2024/02/12 01:28:44;;;;;;;12.73;12.10;;;8.80;99.90;;;;;;4740188;30;20473;-42
2024/02/12 01:31:19;;;;;;;13.03;12.30;;;8.80;99.90;;;;;;4728778;30;20538;-52
2024/02/12 01:33:47;;;;;;;12.90;12.20;;;8.90;99.90;;;;;;4730688;30;20595;-52
2024/02/12 01:36:14;;;;;;;13.80;13.00;;;8.90;94.60;;;;;;4735122;30;20423;-49
2024/02/12 01:38:41;;;;;;;13.47;12.77;;;9.00;95.20;;;;;;4726818;30;20434;-48
2024/02/12 01:41:06;;;;;;;13.73;12.93;;;9.00;99.90;;;;;;4728865;30;20509;-54
2024/02/12 01:43:35;;;;;;;13.37;12.57;;;9.00;91.40;;;;;;4730899;30;20946;-52
2024/02/12 01:46:05;;;;;;;12.97;12.20;;;9.00;94.20;;;;;;4738711;30;20450;-51
2024/02/12 01:48:32;;;;;;;13.93;13.03;;;9.00;84.80;;;;;;4728956;30;20446;-51
2024/02/12 01:51:06;;;;;;;13.20;12.50;;;9.10;76.20;;;;;;4737373;30;20585;-51
2024/02/12 01:53:37;;;;;;;13.13;12.30;;;9.10;72.10;;;;;;4730448;30;20701;-51
2024/02/12 01:56:04;;;;;;;13.53;12.60;;;9.10;64.40;;;;;;4724397;30;20468;-52
2024/02/12 01:58:30;;;;;;;13.03;12.33;;;9.00;82.30;;;;;;4727614;30;20436;-53
2024/02/12 02:00:57;;;;;;;13.67;12.67;;;9.10;64.80;;;;;;4727643;30;20941;-51
2024/02/12 02:03:24;;;;;;;12.97;12.17;;;9.10;67.70;;;;;;4737652;30;20244;-53
2024/02/12 02:05:52;;;;;;;13.10;12.40;;;9.10;56.50;;;;;;4739572;30;20438;-51
2024/02/12 02:08:31;;;;;;;13.00;12.30;;;9.10;55.80;;;;;;4738839;30;20472;-50
2024/02/12 02:10:57;;;;;;;12.83;11.90;;;9.10;44.90;;;;;;4735091;30;20446;-52
2024/02/12 02:13:23;;;;;;;13.23;12.43;;;9.10;52.00;;;;;;4731584;30;20435;-51
2024/02/12 02:15:49;;;;;;;13.57;12.67;;;9.00;53.30;;;;;;4733778;30;20948;-50
2024/02/12 02:18:16;;;;;;;13.40;12.50;;;9.10;99.90;;;;;;4728234;30;21040;-52
2024/02/12 02:20:41;;;;;;;13.23;12.50;;;9.10;99.90;;;;;;4741715;30;20199;-51
2024/02/12 02:23:07;;;;;;;13.37;12.40;;;9.10;41.60;;;;;;4732440;30;20431;-49
2024/02/12 02:25:33;;;;;;;13.23;12.53;;;9.10;40.80;;;;;;4735085;30;20201;-53
2024/02/12 02:27:59;;;;;;;12.60;11.90;;;9.20;28.10;;;;;;4748105;30;20653;-51
2024/02/12 02:30:25;;;;;;;13.30;12.60;;;9.20;99.90;;;;;;4731645;30;20457;-50
2024/02/12 02:32:51;;;;;;;12.63;12.00;;;9.20;99.90;;;;;;4727896;30;20486;-52
2024/02/12 02:35:17;;;;;;;12.67;12.07;;;9.30;99.90;;;;;;4738449;30;20188;-50
2024/02/12 02:37:43;;;;;;;12.80;12.10;;;9.20;99.90;;;;;;4738585;30;20788;-43
2024/02/12 02:40:09;;;;;;;13.00;12.30;;;9.30;99.90;;;;;;4735439;30;20442;-42
2024/02/12 02:42:38;;;;;;;13.00;12.20;;;9.20;99.90;;;;;;4740064;30;20600;-40
2024/02/12 02:45:06;;;;;;;13.40;12.70;;;9.20;99.90;;;;;;4729237;30;20470;-42
2024/02/12 02:47:31;;;;;;;13.10;12.30;;;9.20;99.90;;;;;;4740574;30;20461;-42
2024/02/12 02:49:57;;;;;;;13.20;12.40;;;9.20;99.90;;;;;;4730835;30;20518;-44
2024/02/12 02:52:24;;;;;;;12.90;12.20;;;9.20;99.90;;;;;;4725218;30;20213;-43
2024/02/12 02:54:50;;;;;;;12.70;12.00;;;9.20;99.90;;;;;;4725524;30;20530;-47
2024/02/12 02:57:16;;;;;;;12.60;11.90;;;9.20;99.90;;;;;;4725089;30;20483;-44
2024/02/12 02:59:42;;;;;;;12.70;12.00;;;9.30;99.90;;;;;;4726064;30;20436;-40
2024/02/12 03:02:11;;;;;;;12.57;11.97;;;9.20;99.90;;;;;;4725366;30;20615;-41
2024/02/12 03:04:38;;;;;;;13.30;12.50;;;9.20;99.90;;;;;;4731992;30;20431;-44
2024/02/12 03:07:06;;;;;;;12.60;12.00;;;9.30;99.90;;;;;;4737743;30;21265;-41
2024/02/12 03:09:34;;;;;;;13.27;12.47;;;9.20;99.90;;;;;;4736919;30;20492;-41
2024/02/12 03:11:59;;;;;;;12.33;11.73;;;9.30;99.90;;;;;;4741017;30;20579;-46
2024/02/12 03:14:25;;;;;;;12.10;11.40;;;9.30;99.90;;;;;;4733568;30;20439;-42
2024/02/12 03:16:55;;;;;;;12.90;12.20;;;9.20;99.90;;;;;;4741127;30;20657;-41
2024/02/12 03:19:21;;;;;;;13.00;12.30;;;9.30;99.90;;;;;;4730326;30;20315;-45
2024/02/12 03:21:49;;;;;;;13.13;12.27;;;9.30;99.90;;;;;;4734518;30;20463;-44
2024/02/12 03:24:21;;;;;;;12.13;11.50;;;9.20;99.90;;;;;;4731015;30;20293;-47
2024/02/12 03:26:51;;;;;;;12.97;12.30;;;9.20;99.90;;;;;;4753147;30;20446;-42
2024/02/12 03:29:19;;;;;;;12.53;11.93;;;9.30;99.90;;;;;;4737526;30;20435;-43
2024/02/12 03:31:45;;;;;;;11.83;11.17;;;9.30;99.90;;;;;;4739885;30;20477;-42
2024/02/12 03:34:11;;;;;;;11.47;10.97;;;9.40;99.90;;;;;;4732679;30;20438;-47
2024/02/12 03:36:46;;;;;;;12.00;11.40;;;9.30;99.90;;;;;;4739867;30;20445;-50
2024/02/12 03:39:12;;;;;;;12.50;11.50;;;9.30;99.90;;;;;;4732475;30;20900;-49
2024/02/12 03:41:38;;;;;;;12.83;12.13;;;9.30;99.90;;;;;;4735921;30;20435;-54
2024/02/12 03:44:04;;;;;;;12.60;11.83;;;9.30;99.90;;;;;;4738421;30;20488;-53
2024/02/12 03:46:35;;;;;;;12.00;11.40;;;9.20;99.90;;;;;;4737367;30;20697;-51
2024/02/12 03:59:59;;;;;;;11.47;10.87;;;9.20;99.90;;;;;;4725699;30;20423;-43
2024/02/12 04:02:27;;;;;;;12.50;11.90;;;9.20;99.90;;;;;;4730774;30;20439;-45
2024/02/12 04:04:53;;;;;;;12.60;12.00;;;9.30;99.90;;;;;;4731712;30;20181;-41
2024/02/12 04:07:21;;;;;;;12.07;11.47;;;9.20;99.90;;;;;;4723868;30;20447;-41
2024/02/12 04:09:47;;;;;;;11.50;11.00;;;9.20;99.90;;;;;;4729414;30;20782;-45
2024/02/12 04:12:13;;;;;;;12.60;12.00;;;9.30;99.90;;;;;;4729604;30;20482;-42
2024/02/12 04:14:42;;;;;;;12.30;11.70;;;9.20;99.90;;;;;;4731235;30;20438;-43
2024/02/12 04:17:14;;;;;;;12.37;11.77;;;9.30;99.90;;;;;;4736423;30;20661;-43
2024/02/12 04:19:41;;;;;;;12.30;11.50;;;9.20;99.90;;;;;;4735195;30;20502;-43
2024/02/12 04:22:10;;;;;;;12.57;11.80;;;9.20;99.90;;;;;;4741169;30;20531;-43
2024/02/12 04:24:43;;;;;;;12.50;11.90;;;9.30;99.90;;;;;;4735121;30;21318;-48
2024/02/12 04:27:10;;;;;;;12.63;11.93;;;9.20;99.90;;;;;;4740347;30;20462;-41
2024/02/12 04:29:43;;;;;;;12.30;11.70;;;9.20;99.90;;;;;;4732308;30;20497;-41
2024/02/12 04:32:11;;;;;;;11.60;11.00;;;9.20;99.90;;;;;;4726853;30;20482;-43
2024/02/12 04:34:38;;;;;;;11.37;10.87;;;9.30;99.90;;;;;;4730936;30;20419;-44
2024/02/12 04:37:06;;;;;;;11.53;10.93;;;9.40;99.90;;;;;;4728974;30;21033;-44
2024/02/12 04:39:32;;;;;;;11.90;11.30;;;9.30;99.90;;;;;;4736943;30;20775;-53
2024/02/12 04:41:59;;;;;;;12.07;11.47;;;9.30;99.90;;;;;;4736563;30;20534;-53
2024/02/12 04:44:25;;;;;;;12.03;11.50;;;9.30;99.90;;;;;;4730760;30;20811;-52
2024/02/12 04:46:51;;;;;;;11.50;10.90;;;9.30;99.90;;;;;;4735592;30;20810;-47
2024/02/12 04:49:18;;;;;;;11.93;11.33;;;9.30;99.90;;;;;;4734158;30;20435;-43
2024/02/12 04:51:44;;;;;;;12.03;11.43;;;9.30;99.90;;;;;;4735596;30;20204;-41
2024/02/12 04:54:10;;;;;;;12.30;11.70;;;9.30;99.90;;;;;;4727244;30;20512;-42
2024/02/12 04:56:35;;;;;;;12.00;11.40;;;9.20;99.90;;;;;;4727238;30;20241;-42
2024/02/12 04:59:01;;;;;;;10.40;9.80;;;9.30;99.90;;;;;;4738525;30;20277;-41
2024/02/12 05:01:27;;;;;;;11.57;11.00;;;9.30;99.90;;;;;;4725400;30;20197;-43
2024/02/12 05:03:53;;;;;;;11.10;10.53;;;9.30;99.90;;;;;;4730114;30;20456;-42
2024/02/12 05:06:20;;;;;;;12.20;11.60;;;9.20;99.90;;;;;;4731571;30;20208;-43
2024/02/12 05:08:46;;;;;;;11.57;10.97;;;9.20;99.90;;;;;;4734908;30;20908;-44
2024/02/12 05:11:14;;;;;;;11.70;11.10;;;9.20;99.90;;;;;;4725259;30;20444;-42
2024/02/12 05:13:39;;;;;;;11.07;10.43;;;9.30;99.90;;;;;;4740436;30;20431;-42
2024/02/12 05:16:07;;;;;;;10.67;10.17;;;9.30;99.90;;;;;;4731133;30;21375;-44
2024/02/12 05:24:04;;;;;;;11.80;11.20;;;9.20;99.90;;;;;;4734225;30;20478;-43
2024/02/12 05:26:30;;;;;;;11.30;10.80;;;9.20;99.90;;;;;;4732659;30;20534;-43
2024/02/12 05:28:56;;;;;;;11.50;11.00;;;9.20;99.90;;;;;;4729777;30;20981;-45
2024/02/12 05:31:21;;;;;;;11.13;10.53;;;9.30;99.90;;;;;;4726013;30;21368;-48
2024/02/12 05:33:48;;;;;;;11.17;10.57;;;9.30;99.90;;;;;;4739517;30;20228;-44
2024/02/12 05:36:17;;;;;;;11.00;10.50;;;9.30;99.90;;;;;;4731000;30;20197;-42
2024/02/12 05:38:46;;;;;;;11.00;10.50;;;9.20;99.90;;;;;;4729392;30;20494;-43
2024/02/12 05:41:12;;;;;;;10.80;10.30;;;9.20;99.90;;;;;;4728187;30;20463;-45
2024/02/12 05:43:37;;;;;;;10.20;9.80;;;9.10;99.90;;;;;;4723187;30;20850;-41
2024/02/12 05:46:06;;;;;;;11.57;11.03;;;9.10;99.90;;;;;;4729881;30;20447;-42
2024/02/12 05:48:32;;;;;;;11.40;10.90;;;9.10;99.90;;;;;;4740382;30;20207;-42
2024/02/12 05:50:58;;;;;;;10.97;10.47;;;9.10;99.90;;;;;;4748983;30;20450;-41
2024/02/12 05:53:26;;;;;;;10.90;10.40;;;9.10;99.90;;;;;;4731139;30;20477;-51
2024/02/12 05:55:52;;;;;;;12.13;11.53;;;9.10;99.90;;;;;;4734188;30;20474;-46
2024/02/12 05:58:18;;;;;;;10.83;10.23;;;9.10;99.90;;;;;;4739292;30;20517;-49
2024/02/12 06:00:46;;;;;;;11.20;10.40;;;9.00;99.90;;;;;;4731718;30;20452;-47
2024/02/12 06:03:12;;;;;;;11.33;10.83;;;9.00;99.90;;;;;;4727209;30;20463;-43
2024/02/12 06:05:37;;;;;;;11.10;10.40;;;9.00;99.90;;;;;;4738449;30;20439;-41
2024/02/12 06:08:04;;;;;;;11.10;10.60;;;8.90;99.90;;;;;;4734055;30;20217;-51
2024/02/12 06:10:31;;;;;;;10.70;10.20;;;8.90;99.90;;;;;;4734785;30;20352;-46
2024/02/12 06:12:58;;;;;;;11.53;10.93;;;8.90;99.90;;;;;;4734565;30;20827;-49
2024/02/12 06:15:24;;;;;;;11.63;11.00;;;8.90;99.90;;;;;;4738959;30;20430;-54
2024/02/12 06:17:49;;;;;;;11.90;11.30;;;8.80;99.90;;;;;;4735989;30;21211;-47
2024/02/12 06:20:15;;;;;;;11.23;10.63;;;8.80;99.90;;;;;;4738928;30;20196;-52
2024/02/12 06:22:42;;;;;;;10.97;10.47;;;8.70;99.90;;;;;;4750107;30;20245;-54
2024/02/12 06:25:09;;;;;;;11.20;10.70;;;8.70;99.90;;;;;;4734047;30;20756;-51
2024/02/12 06:27:35;;;;;;;11.73;11.03;;;8.70;99.90;;;;;;4727051;30;20853;-51
2024/02/12 06:30:03;;;;;;;11.03;10.53;;;8.70;99.90;;;;;;4726911;30;20505;-51
2024/02/12 06:32:29;;;;;;;12.20;11.50;;;8.70;99.90;;;;;;4724130;30;20867;-48
2024/02/12 06:34:55;;;;;;;12.37;11.67;;;8.70;99.90;;;;;;4733584;30;20446;-52
2024/02/12 06:37:21;;;;;;;12.20;11.60;;;8.70;99.90;;;;;;4743958;30;20522;-51
2024/02/12 06:39:47;;;;;;;11.27;10.70;;;8.70;99.90;;;;;;4731678;30;20848;-52
2024/02/12 06:42:12;;;;;;;10.83;10.33;;;8.80;99.90;;;;;;4727773;30;20197;-50
2024/02/12 06:44:39;;;;;;;11.90;11.30;;;8.90;99.90;;;;;;4738507;30;20271;-48
2024/02/12 06:47:05;;;;;;;11.30;10.70;;;8.90;99.90;;;;;;4733899;30;20205;-52
2024/02/12 06:49:31;;;;;;;10.93;10.43;;;8.90;99.90;;;;;;4737337;30;20965;-48
2024/02/12 06:51:57;;;;;;;11.27;10.73;;;8.90;99.90;;;;;;4735197;30;20479;-53
2024/02/12 06:54:23;;;;;;;11.40;10.90;;;8.90;99.90;;;;;;4732212;30;20634;-54
2024/02/12 06:56:50;;;;;;;11.53;10.93;;;9.00;99.90;;;;;;4731376;30;20535;-49
2024/02/12 06:59:15;;;;;;;11.00;10.50;;;9.00;99.90;;;;;;4740365;30;20592;-54
2024/02/12 07:01:41;;;;;;;11.90;11.10;;;9.10;99.90;;;;;;4728265;30;20479;-53
2024/02/12 07:04:06;;;;;;;10.47;9.87;;;9.10;99.90;;;;;;4732960;30;20197;-53
2024/02/12 07:06:34;;;;;;;10.50;10.00;;;9.20;99.90;;;;;;4738322;30;20640;-51
2024/02/12 07:09:00;;;;;;;9.90;9.47;;;9.20;99.90;;;;;;4732108;30;20196;-48
2024/02/12 07:11:27;;;;;;;11.30;10.73;;;9.20;99.90;;;;;;4735820;30;20484;-52
2024/02/12 07:13:52;;;;;;;11.00;10.47;;;9.20;99.90;;;;;;4730190;30;20204;-52
2024/02/12 07:16:19;;;;;;;11.30;10.80;;;9.30;99.90;;;;;;4726512;30;20932;-53
2024/02/12 07:18:46;;;;;;;9.93;9.43;;;9.30;99.90;;;;;;4722529;30;20275;-53
2024/02/12 07:21:12;;;;;;;10.10;9.67;;;9.30;99.90;;;;;;4738164;30;20439;-53
2024/02/12 07:23:38;;;;;;;10.90;10.33;;;9.30;99.90;;;;;;4736119;30;20915;-50
2024/02/12 07:26:04;;;;;;;10.80;10.30;;;9.30;99.90;;;;;;4741455;30;20485;-52
2024/02/12 07:28:30;;;;;;;10.77;10.20;;;9.30;99.90;;;;;;4732812;30;20199;-41
2024/02/12 07:30:56;;;;;;;11.00;10.50;;;9.30;99.90;;;;;;4741106;30;20464;-46
2024/02/12 07:33:22;;;;;;;10.97;10.47;;;9.40;99.90;;;;;;4739373;30;20514;-52
2024/02/12 07:35:47;;;;;;;11.27;10.67;;;9.40;99.90;;;;;;4741222;30;20458;-49
2024/02/12 07:38:13;;;;;;;10.80;10.30;;;9.50;99.90;;;;;;4733531;30;20195;-50
2024/02/12 07:40:39;;;;;;;11.10;10.40;;;9.50;99.90;;;;;;4741210;30;20196;-47
2024/02/12 07:43:05;;;;;;;10.87;10.40;;;9.50;99.90;;;;;;4732728;30;20427;-52
2024/02/12 07:45:34;;;;;;;10.50;10.00;;;9.60;99.90;;;;;;4729253;30;20474;-53
2024/02/12 07:48:00;;;;;;;11.53;10.93;;;9.60;99.90;;;;;;4725878;30;20474;-50
2024/02/12 07:50:26;;;;;;;11.87;11.20;;;9.70;99.90;;;;;;4740755;30;20437;-53
2024/02/12 07:52:52;;;;;;;11.63;10.97;;;9.70;99.90;;;;;;4736336;30;20471;-52
2024/02/12 07:55:20;;;;;;;11.37;10.80;;;9.70;99.90;;;;;;4729987;30;20940;-50
2024/02/12 07:57:50;;;;;;;10.90;10.40;;;9.70;99.90;;;;;;4738036;30;20636;-50
2024/02/12 08:00:17;;;;;;;11.10;10.60;;;9.80;99.90;;;;;;4734731;30;20436;-52
2024/02/12 08:02:44;;;;;;;10.07;9.57;;;9.90;99.90;;;;;;4727957;30;20923;-54
2024/02/12 08:05:14;;;;;;;10.70;10.20;;;9.80;99.90;;;;;;4738840;30;20529;-53
2024/02/12 08:07:40;;;;;;;10.60;10.10;;;9.90;99.90;;;;;;4738615;30;20435;-51
2024/02/12 08:10:07;;;;;;;10.03;9.63;;;9.90;99.90;;;;;;4738830;30;20442;-54
2024/02/12 08:12:33;;;;;;;10.03;9.53;;;9.90;99.90;;;;;;4740501;30;20589;-48
2024/02/12 08:14:59;;;;;;;11.20;10.60;;;9.90;99.90;;;;;;4736950;30;20466;-51
2024/02/12 08:17:25;;;;;;;10.70;10.20;;;9.90;99.90;;;;;;4740511;30;20935;-55
2024/02/12 08:19:54;;;;;;;10.77;10.27;;;9.90;99.90;;;;;;4729382;30;20192;-55
2024/02/12 08:22:23;;;;;;;11.30;10.80;;;9.90;99.90;;;;;;4730443;30;20201;-55
2024/02/12 08:24:49;;;;;;;11.10;10.60;;;10.00;99.90;;;;;;4728862;30;20686;-50
2024/02/12 08:27:16;;;;;;;11.87;11.27;;;10.00;99.90;;;;;;4737356;30;20430;-50
2024/02/12 08:29:42;;;;;;;11.27;10.77;;;10.00;99.90;;;;;;4730621;30;20442;-55
2024/02/12 08:32:08;;;;;;;11.40;10.90;;;10.00;99.90;;;;;;4740112;30;20487;-51
2024/02/12 08:34:37;;;;;;;10.73;10.23;;;10.10;99.90;;;;;;4733828;30;20431;-50
2024/02/12 08:37:03;;;;;;;11.00;10.50;;;10.00;99.90;;;;;;4739953;30;20449;-50
2024/02/12 08:39:28;;;;;;;10.90;10.40;;;10.00;99.90;;;;;;4733490;30;20431;-50
2024/02/12 08:41:54;;;;;;;10.83;10.33;;;9.90;99.90;;;;;;4740332;30;20287;-52
2024/02/12 08:44:19;;;;;;;11.30;10.80;;;9.90;99.90;;;;;;4736265;30;20208;-52
2024/02/12 08:46:45;;;;;;;11.10;10.50;;;10.00;99.90;;;;;;4740188;30;20704;-54
2024/02/12 08:49:11;;;;;;;10.50;10.00;;;10.00;99.90;;;;;;4738288;30;20280;-50
2024/02/12 08:51:37;;;;;;;11.30;10.80;;;10.00;99.90;;;;;;4736338;30;20684;-44
2024/02/12 08:54:02;;;;;;;10.77;10.27;;;10.10;99.90;;;;;;4729048;30;20450;-42
2024/02/12 08:56:28;;;;;;;11.00;10.40;;;10.20;99.90;;;;;;4739659;30;20723;-42
2024/02/12 08:58:57;;;;;;;11.40;10.80;;;10.30;99.90;;;;;;4734634;30;20200;-44
2024/02/12 09:01:23;;;;;;;10.60;10.10;;;10.40;99.90;;;;;;4726834;30;20282;-48
2024/02/12 09:03:49;;;;;;;11.13;10.53;;;10.60;99.90;;;;;;4730118;30;20491;-42
2024/02/12 09:06:16;;;;;;;11.30;10.70;;;10.60;99.90;;;;;;4739617;30;20876;-47
2024/02/12 09:08:45;;;;;;;10.37;9.90;;;10.70;99.90;;;;;;4738357;30;20668;-45
2024/02/12 09:11:11;;;;;;;11.03;10.53;;;10.80;99.90;;;;;;4730092;30;20962;-43
2024/02/12 09:13:39;;;;;;;11.13;10.50;;;10.90;99.90;;;;;;4739117;30;20561;-43
2024/02/12 09:16:08;;;;;;;10.70;10.20;;;11.00;99.90;;;;;;4730234;30;20481;-41
2024/02/12 09:18:37;;;;;;;11.60;11.00;;;11.00;99.90;;;;;;4732227;30;20534;-42
2024/02/12 09:21:04;;;;;;;11.00;10.50;;;11.10;99.90;;;;;;4730990;30;20514;-45
2024/02/12 09:23:30;;;;;;;10.17;9.67;;;11.20;99.90;;;;;;4727903;30;20427;-47
2024/02/12 09:25:56;;;;;;;10.77;10.23;;;11.10;99.90;;;;;;4732572;30;20483;-42
2024/02/12 09:28:23;;;;;;;10.83;10.33;;;11.10;99.90;;;;;;4727029;30;20250;-43
2024/02/12 09:30:49;;;;;;;10.77;10.27;;;11.30;99.90;;;;;;4731019;30;20431;-42
2024/02/12 09:33:15;;;;;;;10.07;9.67;;;11.30;99.90;;;;;;4739066;30;20490;-42
2024/02/12 09:35:41;;;;;;;10.70;10.20;;;11.10;99.90;;;;;;4736387;30;20434;-44
2024/02/12 09:38:08;;;;;;;11.23;10.53;;;11.20;99.90;;;;;;4739145;30;20926;-41
2024/02/12 09:40:34;;;;;;;11.17;10.57;;;11.10;99.90;;;;;;4737221;30;20526;-46
2024/02/12 09:43:00;;;;;;;10.40;9.90;;;11.20;99.90;;;;;;4738084;30;20431;-44
2024/02/12 09:45:29;;;;;;;11.43;10.83;;;11.10;99.90;;;;;;4729711;30;20444;-42
2024/02/12 09:47:56;;;;;;;10.50;10.00;;;11.10;99.90;;;;;;4724232;30;20494;-44
2024/02/12 09:50:27;;;;;;;10.87;10.37;;;11.10;99.90;;;;;;4739267;30;20438;-51
2024/02/12 09:52:56;;;;;;;11.27;10.77;;;11.10;99.90;;;;;;4731009;30;20702;-52
2024/02/12 09:55:23;;;;;;;11.50;11.00;;;11.10;99.90;;;;;;4730748;30;20455;-52
2024/02/12 09:57:49;;;;;;;11.10;10.40;;;11.10;99.90;;;;;;4728893;30;20432;-54
2024/02/12 10:00:15;;;;;;;10.07;9.67;;;11.00;99.90;;;;;;4732965;30;20994;-51
2024/02/12 10:02:41;;;;;;;10.80;10.30;;;11.10;99.90;;;;;;4726812;30;20427;-50
2024/02/12 10:05:10;;;;;;;10.67;10.17;;;11.20;99.90;;;;;;4728825;30;20849;-49
2024/02/12 10:07:39;;;;;;;10.97;10.47;;;11.40;99.90;;;;;;4738362;30;20434;-49
2024/02/12 10:10:07;;;;;;;10.43;9.90;;;11.60;99.90;;;;;;4735272;30;20445;-48
2024/02/12 10:12:36;;;;;;;10.60;10.10;;;11.60;99.90;;;;;;4728099;30;20475;-52
2024/02/12 10:15:02;;;;;;;11.33;10.73;;;11.50;1.00;;;;;;4736143;30;21321;-54
2024/02/12 10:17:28;;;;;;;10.87;10.37;;;11.70;99.90;;;;;;4736590;30;21021;-52
2024/02/12 10:19:54;;;;;;;11.60;11.00;;;11.90;99.90;;;;;;4737670;30;20441;-53
2024/02/12 10:22:23;;;;;;;11.40;10.90;;;12.00;99.90;;;;;;4735773;30;20463;-51
2024/02/12 10:24:49;;;;;;;11.90;11.20;;;12.00;99.90;;;;;;4733044;30;20681;-48
2024/02/12 10:27:15;;;;;;;10.53;10.03;;;12.00;99.90;;;;;;4733656;30;20500;-53
2024/02/12 10:29:41;;;;;;;10.60;10.10;;;11.90;99.90;;;;;;4738723;30;20869;-50
2024/02/12 10:32:08;;;;;;;11.47;10.87;;;11.90;99.90;;;;;;4729887;30;20539;-54
2024/02/12 10:34:37;;;;;;;12.10;11.50;;;11.90;99.90;;;;;;4741654;30;20200;-50
2024/02/12 10:37:05;;;;;;;12.00;11.40;;;11.90;99.90;;;;;;4731937;30;20449;-45
2024/02/12 10:39:31;;;;;;;10.17;9.67;;;11.90;99.90;;;;;;4742021;30;20415;-42
2024/02/12 10:42:03;;;;;;;10.90;10.40;;;11.80;99.90;;;;;;4735735;30;20445;-45
2024/02/12 10:44:31;;;;;;;10.90;10.37;;;11.70;99.90;;;;;;4741928;30;20615;-46
2024/02/12 10:46:57;;;;;;;11.60;10.90;;;11.70;99.90;;;;;;4734306;30;20844;-43
2024/02/12 10:49:24;;;;;;;10.93;10.40;;;11.60;99.90;;;;;;4738839;30;20441;-43
2024/02/12 10:51:56;;;;;;;11.30;10.80;;;11.60;99.90;;;;;;4732169;30;20466;-51
2024/02/12 10:54:26;;;;;;;10.80;10.40;;;11.80;99.90;;;;;;4740551;30;20487;-52
2024/02/12 10:56:51;;;;;;;10.83;10.33;;;11.80;99.90;;;;;;4734772;30;20475;-51
2024/02/12 10:59:17;;;;;;;10.90;10.30;;;11.80;99.90;;;;;;4740385;30;20430;-56
2024/02/12 11:01:44;;;;;;;11.20;10.70;;;11.80;99.90;;;;;;4731661;30;20193;-55
2024/02/12 11:04:15;;;;;;;10.70;10.30;;;12.00;99.90;;;;;;4728358;30;20572;-54
2024/02/12 11:06:41;;;;;;;11.70;11.00;;;12.10;99.90;;;;;;4725587;30;20898;-53
2024/02/12 11:09:09;;;;;;;10.73;10.23;;;12.20;99.90;;;;;;4729429;30;20426;-50
2024/02/12 11:11:45;;;;;;;10.83;10.33;;;12.30;99.90;;;;;;4732480;30;20435;-54
2024/02/12 11:14:14;;;;;;;12.00;11.40;;;12.30;99.90;;;;;;4731125;30;20431;-52
2024/02/12 11:16:40;;;;;;;11.33;10.73;;;12.20;99.90;;;;;;4734363;30;20974;-53
2024/02/12 11:19:14;;;;;;;11.53;10.93;;;12.30;99.90;;;;;;4741184;30;20431;-51
2024/02/12 11:21:39;;;;;;;10.40;9.90;;;12.30;99.90;;;;;;4749534;30;20438;-52
2024/02/12 11:24:09;;;;;;;10.93;10.43;;;12.30;99.90;;;;;;4741260;30;20462;-48
2024/02/12 11:26:45;;;;;;;10.70;10.10;;;12.20;99.90;;;;;;4737297;30;20203;-54
2024/02/12 11:29:11;;;;;;;11.03;10.43;;;12.10;99.90;;;;;;4734072;30;20447;-48
2024/02/12 11:31:39;;;;;;;10.87;10.37;;;12.10;99.90;;;;;;4737949;30;20438;-54
2024/02/12 11:34:18;;;;;;;11.00;10.50;;;12.00;99.90;;;;;;4741173;30;21049;-53
2024/02/12 11:36:45;;;;;;;11.40;10.87;;;12.00;99.90;;;;;;4734198;30;20450;-43
2024/02/12 11:39:11;;;;;;;11.40;10.90;;;12.00;99.90;;;;;;4734805;30;20427;-53
2024/02/12 11:41:38;;;;;;;10.57;10.07;;;12.00;99.90;;;;;;4736076;30;20430;-53
2024/02/12 11:44:07;;;;;;;11.10;10.60;;;12.10;99.90;;;;;;4733366;30;20199;-50
2024/02/12 11:46:38;;;;;;;10.83;10.27;;;12.20;99.90;;;;;;4726101;30;20842;-43
2024/02/12 11:49:07;;;;;;;12.40;11.80;;;12.20;99.90;;;;;;4735864;30;20455;-43
2024/02/12 11:51:37;;;;;;;12.17;11.57;;;12.10;99.90;;;;;;4738551;30;21060;-43
2024/02/12 11:54:04;;;;;;;12.60;12.00;;;12.20;99.90;;;;;;4740596;30;20510;-45
2024/02/12 11:56:30;;;;;;;13.30;12.50;;;12.30;99.90;;;;;;4738736;30;20471;-42
2024/02/12 11:58:57;;;;;;;11.57;11.00;;;12.40;99.90;;;;;;4736831;30;20872;-42
2024/02/12 12:01:32;;;;;;;11.70;11.10;;;12.60;99.90;;;;;;4733563;30;20438;-44
2024/02/12 12:03:59;;;;;;;11.60;11.00;;;12.60;99.90;;;;;;4731903;30;20437;-42
2024/02/12 12:06:35;;;;;;;11.67;11.07;;;12.50;99.90;;;;;;4734825;30;20947;-46
2024/02/12 12:09:08;;;;;;;11.50;11.00;;;12.40;99.90;;;;;;4730447;30;20450;-46
2024/02/12 12:11:34;;;;;;;10.80;10.30;;;12.30;99.90;;;;;;4739558;30;20665;-42
2024/02/12 12:14:01;;;;;;;12.60;12.00;;;12.20;99.90;;;;;;4739369;30;20926;-46
2024/02/12 12:16:30;;;;;;;11.70;11.10;;;12.20;99.90;;;;;;4740507;30;20480;-43
2024/02/12 12:19:04;;;;;;;10.30;9.80;;;12.00;99.90;;;;;;4739059;30;20427;-47
2024/02/12 12:21:31;;;;;;;11.67;11.17;;;11.90;99.90;;;;;;4736992;30;20463;-41
2024/02/12 12:23:57;;;;;;;11.23;10.63;;;11.80;99.90;;;;;;4729935;30;20462;-43
2024/02/12 12:26:22;;;;;;;11.13;10.53;;;11.90;99.90;;;;;;4729114;30;20435;-43
2024/02/12 12:28:48;;;;;;;11.27;10.77;;;12.00;99.90;;;;;;4730420;30;20442;-46
2024/02/12 12:31:14;;;;;;;10.63;10.13;;;12.00;99.90;;;;;;4740019;30;20536;-44
2024/02/12 12:33:40;;;;;;;11.50;11.00;;;12.00;99.90;;;;;;4732329;30;20235;-44
2024/02/12 12:36:10;;;;;;;10.60;10.10;;;12.10;99.90;;;;;;4735063;30;21143;-42
2024/02/12 12:38:39;;;;;;;11.40;10.90;;;12.10;99.90;;;;;;4733726;30;20489;-46
2024/02/12 12:41:07;;;;;;;11.90;11.10;;;12.10;99.90;;;;;;4735921;30;20799;-44
2024/02/12 12:43:33;;;;;;;11.33;10.73;;;12.20;99.90;;;;;;4735216;30;20462;-52
2024/02/12 12:46:00;;;;;;;11.77;11.23;;;12.20;99.90;;;;;;4739643;30;20563;-46
2024/02/12 12:48:25;;;;;;;11.83;11.33;;;12.40;99.90;;;;;;4734114;30;20439;-46